Time;durP1;ratioP1;P1;durP2;ratioP2;P2;SDS_P1;SDS_P2;PMS_P1;PMS_P2;Temp;Humidity;BMP_temperature;BMP_pressure;BME280_temperature;BME280_humidity;BME280_pressure;Samples;Min_cycle;Max_cycle;Signal;HPM_P1;HPM_P2
2022/02/03 00:04:29;;;;;;;27.53;16.07;;;;;;;;;;4973055;28;20259;-71
2022/02/03 00:07:00;;;;;;;25.40;15.47;;;;;;;;;;4973377;28;20222;-70
2022/02/03 00:25:29;;;;;;;23.93;16.17;;;;;;;;;;4972669;28;20234;-69
2022/02/03 00:30:34;;;;;;;25.77;14.80;;;;;;;;;;4970875;28;20215;-70
2022/02/03 00:49:15;;;;;;;27.03;15.33;;;;;;;;;;4969516;28;20262;-70
2022/02/03 00:51:45;;;;;;;23.90;14.10;;;;;;;;;;4970197;28;20671;-69
2022/02/03 00:54:11;;;;;;;25.83;15.47;;;;;;;;;;4972259;28;20184;-69
2022/02/03 00:56:38;;;;;;;27.00;15.80;;;;;;;;;;4953286;28;20286;-69
2022/02/03 00:59:10;;;;;;;28.50;15.73;;;;;;;;;;4970819;28;20187;-70
2022/02/03 01:01:37;;;;;;;24.37;14.60;;;;;;;;;;4968602;28;20263;-70
2022/02/03 01:04:09;;;;;;;30.03;16.10;;;;;;;;;;4970553;28;20651;-70
2022/02/03 01:06:38;;;;;;;27.00;17.17;;;;;;;;;;4970335;28;20212;-70
2022/02/03 01:09:06;;;;;;;29.67;16.70;;;;;;;;;;4969110;28;20292;-70
2022/02/03 01:11:37;;;;;;;25.67;17.00;;;;;;;;;;4970468;28;20262;-70
2022/02/03 01:14:27;;;;;;;32.17;18.07;;;;;;;;;;4953265;28;20235;-70
2022/02/03 01:20:09;;;;;;;29.20;18.63;;;;;;;;;;4970253;28;20214;-70
2022/02/03 01:33:43;;;;;;;30.97;21.07;;;;;;;;;;4974130;28;20657;-71
2022/02/03 01:44:31;;;;;;;33.83;20.90;;;;;;;;;;4974676;28;20238;-69
2022/02/03 01:47:06;;;;;;;34.87;23.70;;;;;;;;;;4973646;28;20199;-69
2022/02/03 01:52:33;;;;;;;36.87;24.13;;;;;;;;;;4944088;28;20204;-69
2022/02/03 01:54:59;;;;;;;37.63;21.90;;;;;;;;;;4974190;28;20254;-70
2022/02/03 01:57:43;;;;;;;35.93;23.13;;;;;;;;;;4973276;28;20710;-69
2022/02/03 02:00:09;;;;;;;34.30;21.20;;;;;;;;;;4972721;28;20176;-69
2022/02/03 02:02:37;;;;;;;37.17;23.30;;;;;;;;;;4974662;28;20188;-69
2022/02/03 02:05:09;;;;;;;37.10;23.10;;;;;;;;;;4974313;28;20231;-69
2022/02/03 02:07:34;;;;;;;41.43;24.37;;;;;;;;;;4969021;28;20212;-69
2022/02/03 02:13:32;;;;;;;37.40;23.60;;;;;;;;;;4974684;28;20449;-70
2022/02/03 02:16:30;;;;;;;42.80;25.07;;;;;;;;;;4969487;28;20235;-70
2022/02/03 02:38:14;;;;;;;33.33;21.87;;;;;;;;;;4969450;28;20238;-69
2022/02/03 02:41:39;;;;;;;39.53;23.67;;;;;;;;;;4974647;28;20184;-70
2022/02/03 02:44:04;;;;;;;32.30;22.50;;;;;;;;;;4974026;28;20207;-70
2022/02/03 02:46:44;;;;;;;35.57;20.57;;;;;;;;;;4973956;28;20212;-70
2022/02/03 02:49:12;;;;;;;39.87;23.70;;;;;;;;;;4970561;28;20208;-69
2022/02/03 02:51:44;;;;;;;32.40;20.83;;;;;;;;;;4971135;28;20180;-69
2022/02/03 03:00:05;;;;;;;24.50;17.80;;;;;;;;;;4969758;28;20320;-69
2022/02/03 03:35:44;;;;;;;22.40;12.43;;;;;;;;;;4968935;28;20565;-70
2022/02/03 03:38:11;;;;;;;22.03;13.33;;;;;;;;;;4973197;28;20698;-70
2022/02/03 03:40:39;;;;;;;20.77;12.83;;;;;;;;;;4970911;28;20207;-69
2022/02/03 03:43:05;;;;;;;21.07;11.87;;;;;;;;;;4971187;28;20263;-69
2022/02/03 03:45:32;;;;;;;18.63;11.77;;;;;;;;;;4954625;28;20212;-69
2022/02/03 03:48:01;;;;;;;18.80;11.90;;;;;;;;;;4972770;28;20195;-69
2022/02/03 03:50:32;;;;;;;20.37;13.40;;;;;;;;;;4972187;28;20204;-70
2022/02/03 03:53:03;;;;;;;19.50;12.17;;;;;;;;;;4972989;28;20592;-69
2022/02/03 03:55:38;;;;;;;20.53;11.63;;;;;;;;;;4971071;28;20192;-70
2022/02/03 04:29:51;;;;;;;14.57;8.80;;;;;;;;;;4972526;28;20232;-69
2022/02/03 04:38:10;;;;;;;13.60;8.40;;;;;;;;;;4968728;28;20224;-69
2022/02/03 04:41:07;;;;;;;18.50;7.70;;;;;;;;;;4967011;28;20188;-70
2022/02/03 04:55:17;;;;;;;13.53;7.43;;;;;;;;;;4972349;28;20222;-70
2022/02/03 05:04:05;;;;;;;14.07;6.87;;;;;;;;;;4972001;28;20680;-70
2022/02/03 05:07:02;;;;;;;13.57;7.17;;;;;;;;;;4971727;28;20215;-70
2022/02/03 05:09:59;;;;;;;15.90;6.00;;;;;;;;;;4970623;28;20206;-69
2022/02/03 05:12:52;;;;;;;11.17;5.97;;;;;;;;;;4970824;28;20554;-70
2022/02/03 05:18:03;;;;;;;14.27;5.97;;;;;;;;;;4972265;28;20183;-69
2022/02/03 05:24:02;;;;;;;8.27;5.40;;;;;;;;;;4970247;28;20204;-70
2022/02/03 05:50:00;;;;;;;11.00;5.30;;;;;;;;;;4972775;28;20744;-70
2022/02/03 06:02:45;;;;;;;13.27;4.90;;;;;;;;;;4969800;28;20180;-69
2022/02/03 06:05:28;;;;;;;9.67;4.90;;;;;;;;;;4969955;28;20312;-69
2022/02/03 06:08:13;;;;;;;13.90;4.77;;;;;;;;;;4971236;28;20200;-70
2022/02/03 06:16:32;;;;;;;10.63;5.20;;;;;;;;;;4976073;28;20572;-69
2022/02/03 06:23:56;;;;;;;10.93;5.57;;;;;;;;;;4970089;28;20180;-69
2022/02/03 06:29:11;;;;;;;10.40;6.73;;;;;;;;;;4974200;28;20231;-69
2022/02/03 06:31:37;;;;;;;8.90;5.57;;;;;;;;;;4975380;28;20602;-70
2022/02/03 06:34:02;;;;;;;12.50;5.60;;;;;;;;;;4977305;28;20195;-69
2022/02/03 06:36:27;;;;;;;9.97;5.93;;;;;;;;;;4973568;28;20658;-69
2022/02/03 06:38:53;;;;;;;10.43;5.07;;;;;;;;;;4961360;28;20274;-69
2022/02/03 06:41:18;;;;;;;13.30;5.97;;;;;;;;;;4967823;28;20275;-70
2022/02/03 06:43:44;;;;;;;10.50;5.43;;;;;;;;;;4973210;28;20185;-70
2022/02/03 06:46:10;;;;;;;8.83;5.50;;;;;;;;;;4973480;28;20196;-70
2022/02/03 06:48:37;;;;;;;9.20;5.57;;;;;;;;;;4974816;28;20215;-70
2022/02/03 06:51:09;;;;;;;12.10;4.90;;;;;;;;;;4958023;28;20207;-70
2022/02/03 06:53:39;;;;;;;10.30;6.03;;;;;;;;;;4969640;28;20606;-70
2022/02/03 06:56:13;;;;;;;11.43;6.20;;;;;;;;;;4974016;28;20208;-70
2022/02/03 06:58:45;;;;;;;9.37;5.90;;;;;;;;;;4956675;28;20200;-70
2022/02/03 07:01:17;;;;;;;13.80;5.47;;;;;;;;;;4972806;28;20188;-69
2022/02/03 07:03:50;;;;;;;9.33;5.00;;;;;;;;;;4972059;28;20188;-69
2022/02/03 07:06:17;;;;;;;12.47;4.50;;;;;;;;;;4987585;23;20222;-67
2022/02/03 07:08:43;;;;;;;8.63;5.00;;;;;;;;;;5030175;28;20187;-67
2022/02/03 07:11:08;;;;;;;12.33;5.73;;;;;;;;;;5030443;28;20166;-67
2022/02/03 07:13:35;;;;;;;10.63;5.57;;;;;;;;;;5030212;28;20654;-68
2022/02/03 07:16:00;;;;;;;7.97;5.50;;;;;;;;;;5029744;28;20204;-68
2022/02/03 07:18:25;;;;;;;9.53;5.47;;;;;;;;;;5029731;28;20648;-67
2022/02/03 07:20:51;;;;;;;12.73;5.70;;;;;;;;;;5028646;28;20589;-67
2022/02/03 07:23:16;;;;;;;10.67;6.00;;;;;;;;;;5030934;28;20652;-68
2022/02/03 07:25:42;;;;;;;12.67;5.60;;;;;;;;;;5029643;28;20202;-68
2022/02/03 07:28:08;;;;;;;12.27;5.77;;;;;;;;;;5029741;28;20503;-68
2022/02/03 07:30:33;;;;;;;10.23;5.53;;;;;;;;;;5029917;28;20814;-68
2022/02/03 07:33:00;;;;;;;9.23;4.90;;;;;;;;;;5030150;28;20170;-68
2022/02/03 07:35:28;;;;;;;7.63;5.10;;;;;;;;;;5028971;28;20202;-68
2022/02/03 07:37:53;;;;;;;9.20;5.73;;;;;;;;;;5027329;28;20202;-67
2022/02/03 07:40:18;;;;;;;13.93;6.33;;;;;;;;;;5029328;28;20193;-68
2022/02/03 07:42:46;;;;;;;11.70;5.27;;;;;;;;;;5029752;28;20186;-67
2022/02/03 07:45:11;;;;;;;8.87;6.00;;;;;;;;;;5025788;28;20189;-67
2022/02/03 07:47:44;;;;;;;12.90;6.07;;;;;;;;;;5030829;28;20546;-68
2022/02/03 07:50:09;;;;;;;12.50;6.90;;;;;;;;;;5013376;28;20234;-67
2022/02/03 07:52:34;;;;;;;9.97;6.53;;;;;;;;;;5030602;28;20428;-67
2022/02/03 07:55:00;;;;;;;11.00;6.90;;;;;;;;;;5030186;28;20206;-67
2022/02/03 07:57:25;;;;;;;12.97;7.07;;;;;;;;;;5029741;28;20416;-68
2022/02/03 07:59:52;;;;;;;10.87;7.57;;;;;;;;;;5030616;28;20194;-68
2022/02/03 08:02:18;;;;;;;14.30;8.20;;;;;;;;;;5030470;28;20206;-68
2022/02/03 08:04:46;;;;;;;11.83;8.23;;;;;;;;;;5012213;28;20576;-68
2022/02/03 08:07:15;;;;;;;14.37;8.63;;;;;;;;;;4991738;28;1158625;-68
2022/02/03 08:10:06;;;;;;;16.40;9.03;;;;;;;;;;5030356;28;20312;-68
2022/02/03 08:12:30;;;;;;;14.57;8.90;;;;;;;;;;5030060;28;20209;-67
2022/02/03 08:14:57;;;;;;;17.40;8.97;;;;;;;;;;5032082;28;20521;-68
2022/02/03 08:17:28;;;;;;;15.67;9.27;;;;;;;;;;5014979;28;20269;-68
2022/02/03 08:19:58;;;;;;;22.37;10.87;;;;;;;;;;5033078;28;20253;-68
2022/02/03 08:25:28;;;;;;;16.47;11.07;;;;;;;;;;4989582;28;20184;-68
2022/02/03 08:28:31;;;;;;;18.27;11.90;;;;;;;;;;5023159;28;20639;-67
2022/02/03 08:31:05;;;;;;;19.27;10.93;;;;;;;;;;5028104;28;20891;-68
2022/02/03 08:33:31;;;;;;;22.20;13.33;;;;;;;;;;5030065;28;20193;-68
2022/02/03 08:35:59;;;;;;;20.20;12.47;;;;;;;;;;5029538;28;20509;-68
2022/02/03 08:38:45;;;;;;;20.80;13.07;;;;;;;;;;5030412;28;20348;-68
2022/02/03 08:41:11;;;;;;;18.47;13.07;;;;;;;;;;5030658;28;20536;-68
2022/02/03 08:43:37;;;;;;;23.27;13.43;;;;;;;;;;5030161;28;20463;-68
2022/02/03 08:46:04;;;;;;;18.83;12.33;;;;;;;;;;5030125;28;20182;-68
2022/02/03 08:48:29;;;;;;;24.17;14.23;;;;;;;;;;5011820;28;20206;-67
2022/02/03 08:50:55;;;;;;;19.07;12.77;;;;;;;;;;5028563;28;20336;-68
2022/02/03 09:33:31;;;;;;;21.03;14.70;;;;;;;;;;5025296;28;20208;-68
2022/02/03 09:35:03;;;;;;;27.27;15.17;;;;;;;;;;5023297;28;20612;-69
2022/02/03 09:37:49;;;;;;;24.97;16.23;;;;;;;;;;5026539;28;20224;-68
2022/02/03 09:56:54;;;;;;;19.47;12.70;;;;;;;;;;5026506;28;20281;-67
2022/02/03 09:59:21;;;;;;;17.33;12.00;;;;;;;;;;5029146;28;20605;-69
2022/02/03 10:01:53;;;;;;;15.77;10.47;;;;;;;;;;5027646;28;20388;-68
2022/02/03 10:04:44;;;;;;;17.90;11.50;;;;;;;;;;5031989;28;20186;-68
2022/02/03 10:07:18;;;;;;;18.17;10.57;;;;;;;;;;5033250;28;20276;-68
2022/02/03 10:09:44;;;;;;;17.73;11.50;;;;;;;;;;5032120;28;20292;-68
2022/02/03 10:12:10;;;;;;;18.17;9.97;;;;;;;;;;5032720;28;20272;-68
2022/02/03 10:14:37;;;;;;;20.97;12.03;;;;;;;;;;5029719;28;20690;-67
2022/02/03 10:17:03;;;;;;;18.00;10.63;;;;;;;;;;5034063;28;20281;-68
2022/02/03 10:19:34;;;;;;;18.73;11.47;;;;;;;;;;5031154;28;20182;-71
2022/02/03 10:22:01;;;;;;;23.23;12.37;;;;;;;;;;5032633;28;20290;-68
2022/02/03 10:24:32;;;;;;;18.80;12.27;;;;;;;;;;5031334;28;20186;-68
2022/02/03 10:26:57;;;;;;;22.57;11.67;;;;;;;;;;5032308;28;20623;-69
2022/02/03 10:29:27;;;;;;;15.97;11.23;;;;;;;;;;5032644;28;20226;-68
2022/02/03 10:31:52;;;;;;;16.47;10.90;;;;;;;;;;5031924;28;20678;-68
2022/02/03 10:34:25;;;;;;;21.93;11.30;;;;;;;;;;5029923;28;20198;-68
2022/02/03 10:42:21;;;;;;;15.50;10.93;;;;;;;;;;5032994;28;20178;-68
2022/02/03 10:45:03;;;;;;;13.97;10.83;;;;;;;;;;5032541;28;20186;-69
2022/02/03 10:50:47;;;;;;;15.70;9.60;;;;;;;;;;4998646;28;20297;-68
2022/02/03 10:53:40;;;;;;;16.33;9.83;;;;;;;;;;5014702;28;20189;-69
2022/02/03 10:56:21;;;;;;;17.40;10.33;;;;;;;;;;5033089;28;20183;-68
2022/02/03 11:06:38;;;;;;;13.43;10.17;;;;;;;;;;5032468;28;20693;-68
2022/02/03 11:11:35;;;;;;;16.37;9.90;;;;;;;;;;5032299;28;20205;-69
2022/02/03 11:14:00;;;;;;;21.20;9.70;;;;;;;;;;5031020;28;20178;-69
2022/02/03 11:16:25;;;;;;;17.87;9.57;;;;;;;;;;5032441;28;20667;-68
2022/02/03 11:18:52;;;;;;;17.00;10.17;;;;;;;;;;5014483;28;20206;-68
2022/02/03 11:21:17;;;;;;;14.37;9.10;;;;;;;;;;5021125;28;20560;-68
2022/02/03 11:23:52;;;;;;;16.67;9.60;;;;;;;;;;5031769;28;20265;-68
2022/02/03 11:26:32;;;;;;;18.97;10.93;;;;;;;;;;5035073;28;20194;-68
2022/02/03 11:30:04;;;;;;;17.93;9.20;;;;;;;;;;5029757;28;20178;-69
2022/02/03 11:48:00;;;;;;;13.30;9.17;;;;;;;;;;5025525;28;20213;-68
2022/02/03 11:51:52;;;;;;;14.80;10.23;;;;;;;;;;5030763;28;20202;-68
2022/02/03 12:04:47;;;;;;;12.70;8.63;;;;;;;;;;5038708;28;20543;-68
2022/02/03 12:13:02;;;;;;;17.77;10.37;;;;;;;;;;5031412;28;20240;-69
2022/02/03 12:18:14;;;;;;;14.73;8.57;;;;;;;;;;5027205;28;20204;-69
2022/02/03 12:23:34;;;;;;;12.87;8.70;;;;;;;;;;5030852;28;20178;-69
2022/02/03 12:26:05;;;;;;;15.97;8.77;;;;;;;;;;5030082;28;20189;-69
2022/02/03 12:31:12;;;;;;;16.70;9.23;;;;;;;;;;5030869;28;20540;-69
2022/02/03 12:38:51;;;;;;;18.00;10.23;;;;;;;;;;5029381;28;20659;-69
2022/02/03 12:41:31;;;;;;;20.23;10.30;;;;;;;;;;5022016;28;20360;-69
2022/02/03 12:44:01;;;;;;;16.00;9.97;;;;;;;;;;5030137;28;20660;-69
2022/02/03 12:46:27;;;;;;;17.07;10.50;;;;;;;;;;5031742;28;20205;-69
2022/02/03 12:48:56;;;;;;;15.93;10.50;;;;;;;;;;5032351;28;20186;-69
2022/02/03 12:51:22;;;;;;;15.53;10.33;;;;;;;;;;5014250;28;20174;-69
2022/02/03 12:53:48;;;;;;;21.13;10.60;;;;;;;;;;5030005;28;20909;-69
2022/02/03 12:56:13;;;;;;;17.13;10.37;;;;;;;;;;5035341;28;20278;-69
2022/02/03 12:58:43;;;;;;;14.30;10.50;;;;;;;;;;5040507;28;20540;-69
2022/02/03 13:01:13;;;;;;;16.33;10.37;;;;;;;;;;5031627;28;20265;-69
2022/02/03 13:03:44;;;;;;;18.97;10.93;;;;;;;;;;5038001;28;20205;-69
2022/02/03 13:08:46;;;;;;;19.97;12.30;;;;;;;;;;5014911;28;20277;-71
2022/02/03 13:11:20;;;;;;;16.53;11.20;;;;;;;;;;5018938;28;20214;-71
2022/02/03 13:13:58;;;;;;;16.77;10.57;;;;;;;;;;4993234;28;20183;-71
2022/02/03 13:16:23;;;;;;;20.37;12.07;;;;;;;;;;5008399;28;20191;-71
2022/02/03 13:19:11;;;;;;;16.53;11.40;;;;;;;;;;4992385;28;20409;-71
2022/02/03 13:24:14;;;;;;;22.40;12.23;;;;;;;;;;4991777;28;20183;-71
2022/02/03 13:26:40;;;;;;;18.00;11.63;;;;;;;;;;4987780;28;20293;-71
2022/02/03 13:29:08;;;;;;;19.37;11.90;;;;;;;;;;4991495;28;20287;-71
2022/02/03 13:31:52;;;;;;;19.07;10.50;;;;;;;;;;4985966;28;20186;-71
2022/02/03 13:37:10;;;;;;;19.97;12.67;;;;;;;;;;4989294;28;20245;-71
2022/02/03 13:39:38;;;;;;;17.53;10.00;;;;;;;;;;4984402;28;20180;-71
2022/02/03 13:42:04;;;;;;;16.20;11.10;;;;;;;;;;4974982;28;20620;-71
2022/02/03 13:44:30;;;;;;;15.20;10.90;;;;;;;;;;4990142;28;20189;-71
2022/02/03 13:46:55;;;;;;;17.13;10.30;;;;;;;;;;4988611;28;20207;-71
2022/02/03 13:49:22;;;;;;;16.17;10.80;;;;;;;;;;4991254;28;20203;-71
2022/02/03 13:52:03;;;;;;;18.97;11.07;;;;;;;;;;4990324;28;20646;-71
2022/02/03 14:10:36;;;;;;;12.63;9.47;;;;;;;;;;4991250;28;20588;-71
2022/02/03 14:19:29;;;;;;;17.23;10.37;;;;;;;;;;4991602;28;20199;-71
2022/02/03 14:22:00;;;;;;;15.77;11.00;;;;;;;;;;4991298;28;20195;-71
2022/02/03 14:27:10;;;;;;;20.17;9.77;;;;;;;;;;4990605;28;20581;-71
2022/02/03 14:29:42;;;;;;;14.27;10.03;;;;;;;;;;4973602;28;20199;-71
2022/02/03 14:32:09;;;;;;;13.77;9.90;;;;;;;;;;4988220;28;20275;-71
2022/02/03 14:34:35;;;;;;;14.33;9.27;;;;;;;;;;4990728;28;20187;-71
2022/02/03 14:42:20;;;;;;;17.87;9.00;;;;;;;;;;4990910;28;20194;-71
2022/02/03 14:44:45;;;;;;;14.47;8.80;;;;;;;;;;4991297;28;20747;-71
2022/02/03 14:47:11;;;;;;;14.43;9.17;;;;;;;;;;4991826;28;20208;-71
2022/02/03 14:49:39;;;;;;;12.03;9.43;;;;;;;;;;4993228;28;20656;-71
2022/02/03 14:59:48;;;;;;;13.17;8.37;;;;;;;;;;4991689;28;20279;-71
2022/02/03 15:02:13;;;;;;;14.07;8.70;;;;;;;;;;4994089;28;20270;-71
2022/02/03 15:04:41;;;;;;;12.53;8.30;;;;;;;;;;4993701;28;20191;-71
2022/02/03 15:07:09;;;;;;;14.27;9.23;;;;;;;;;;4993808;28;20219;-71
2022/02/03 15:15:09;;;;;;;11.03;8.77;;;;;;;;;;4967312;28;20282;-71
2022/02/03 15:17:35;;;;;;;14.63;9.43;;;;;;;;;;4993459;28;20278;-71
2022/02/03 15:20:01;;;;;;;13.77;9.60;;;;;;;;;;4994006;28;20262;-71
2022/02/03 15:22:27;;;;;;;14.40;9.23;;;;;;;;;;4976177;28;20286;-71
2022/02/03 15:24:52;;;;;;;11.73;9.17;;;;;;;;;;4993654;28;20709;-70
2022/02/03 15:27:17;;;;;;;13.07;9.20;;;;;;;;;;4993374;28;20295;-71
2022/02/03 15:29:48;;;;;;;15.07;9.70;;;;;;;;;;4992098;28;20254;-71
2022/02/03 15:32:14;;;;;;;14.00;9.80;;;;;;;;;;4992529;28;20203;-71
2022/02/03 15:34:39;;;;;;;14.30;9.67;;;;;;;;;;4993443;28;20720;-71
2022/02/03 15:37:11;;;;;;;11.80;9.00;;;;;;;;;;4993127;28;20199;-71
2022/02/03 15:39:42;;;;;;;11.67;8.97;;;;;;;;;;4987063;28;20634;-71
2022/02/03 15:42:08;;;;;;;17.77;9.77;;;;;;;;;;4991895;28;20195;-71
2022/02/03 15:44:38;;;;;;;16.70;9.50;;;;;;;;;;4992957;28;20168;-71
2022/02/03 15:47:10;;;;;;;13.70;8.83;;;;;;;;;;4989538;28;20207;-71
2022/02/03 16:00:52;;;;;;;21.13;9.10;;;;;;;;;;4997814;28;20195;-71
2022/02/03 16:03:15;;;;;;;15.70;9.30;;;;;;;;;;4991202;28;20195;-71
2022/02/03 16:19:11;;;;;;;16.67;9.50;;;;;;;;;;4992837;28;20188;-71
2022/02/03 16:21:46;;;;;;;10.37;8.83;;;;;;;;;;4992537;28;20634;-71
2022/02/03 16:51:05;;;;;;;15.73;10.57;;;;;;;;;;4992263;28;20362;-71
2022/02/03 16:53:30;;;;;;;12.43;10.13;;;;;;;;;;4991841;28;20809;-71
2022/02/03 16:55:58;;;;;;;20.40;11.17;;;;;;;;;;4992376;28;20263;-71
2022/02/03 16:58:24;;;;;;;14.27;10.83;;;;;;;;;;4980321;28;20578;-71
2022/02/03 17:00:49;;;;;;;14.17;10.47;;;;;;;;;;4992624;28;20183;-71
2022/02/03 17:03:14;;;;;;;14.27;11.23;;;;;;;;;;4989933;28;20183;-71
2022/02/03 17:05:39;;;;;;;15.87;11.53;;;;;;;;;;4992124;28;20267;-71
2022/02/03 17:08:05;;;;;;;12.80;10.37;;;;;;;;;;4992520;28;20215;-71
2022/02/03 17:10:31;;;;;;;14.67;10.83;;;;;;;;;;4992822;28;20199;-71
2022/02/03 17:12:56;;;;;;;15.27;10.97;;;;;;;;;;4991692;28;20183;-71
2022/02/03 17:15:21;;;;;;;14.60;10.47;;;;;;;;;;4974078;28;20203;-71
2022/02/03 17:17:50;;;;;;;14.57;10.60;;;;;;;;;;4991773;28;20242;-71
2022/02/03 17:20:15;;;;;;;13.80;10.00;;;;;;;;;;4974097;28;20186;-71
2022/02/03 17:22:43;;;;;;;13.07;10.77;;;;;;;;;;4993039;28;20184;-71
2022/02/03 17:25:18;;;;;;;15.63;10.63;;;;;;;;;;4973798;28;20649;-71
2022/02/03 17:30:41;;;;;;;12.70;10.33;;;;;;;;;;4970609;28;20761;-71
2022/02/03 18:03:15;;;;;;;18.63;12.47;;;;;;;;;;4987766;28;20183;-70
2022/02/03 18:37:15;;;;;;;17.33;12.23;;;;;;;;;;4995223;28;20278;-70
2022/02/03 18:50:24;;;;;;;16.40;11.50;;;;;;;;;;4994091;28;20195;-70
2022/02/03 18:53:12;;;;;;;16.93;12.50;;;;;;;;;;4974453;28;20206;-70
2022/02/03 18:58:35;;;;;;;21.13;13.60;;;;;;;;;;4991544;28;20201;-70
2022/02/03 19:14:57;;;;;;;21.00;14.60;;;;;;;;;;5029557;28;20491;-68
2022/02/03 20:09:19;;;;;;;24.60;16.50;;;;;;;;;;5000595;28;20211;-67
2022/02/03 20:11:45;;;;;;;25.57;16.33;;;;;;;;;;5010864;28;20221;-68
2022/02/03 20:14:13;;;;;;;23.57;16.47;;;;;;;;;;5030882;28;20332;-68
2022/02/03 20:16:42;;;;;;;26.20;18.17;;;;;;;;;;5014488;28;20205;-69
2022/02/03 20:19:07;;;;;;;23.43;16.53;;;;;;;;;;5029684;28;20607;-68
2022/02/03 20:21:34;;;;;;;25.17;17.23;;;;;;;;;;5021697;28;20174;-68
2022/02/03 20:24:00;;;;;;;26.17;16.60;;;;;;;;;;5026223;28;20186;-67
2022/02/03 20:26:25;;;;;;;26.93;16.73;;;;;;;;;;5027300;28;20590;-68
2022/02/03 20:28:50;;;;;;;23.37;16.47;;;;;;;;;;5027721;28;20235;-69
2022/02/03 20:31:16;;;;;;;24.87;16.77;;;;;;;;;;5026268;28;20222;-69
2022/02/03 20:33:41;;;;;;;26.03;17.33;;;;;;;;;;5008945;28;20619;-69
2022/02/03 20:36:06;;;;;;;29.23;17.30;;;;;;;;;;5029508;28;20281;-69
2022/02/03 20:38:31;;;;;;;27.27;16.93;;;;;;;;;;5024845;28;20206;-69
2022/02/03 20:40:57;;;;;;;27.40;16.87;;;;;;;;;;5038978;28;20178;-68
2022/02/03 20:43:24;;;;;;;27.20;17.57;;;;;;;;;;5044202;28;20178;-68
2022/02/03 20:45:49;;;;;;;24.40;16.43;;;;;;;;;;5030259;28;20190;-70
2022/02/03 20:48:14;;;;;;;24.77;15.60;;;;;;;;;;5029348;28;20573;-68
2022/02/03 20:50:40;;;;;;;23.77;15.37;;;;;;;;;;5028754;28;20210;-69
2022/02/03 20:53:06;;;;;;;23.23;14.83;;;;;;;;;;5030880;28;20174;-69
2022/02/03 20:55:31;;;;;;;23.33;15.60;;;;;;;;;;5030050;28;20171;-69
2022/02/03 20:57:57;;;;;;;23.37;14.73;;;;;;;;;;5024973;28;20620;-69
2022/02/03 21:00:26;;;;;;;20.97;13.77;;;;;;;;;;5028188;28;20182;-69
2022/02/03 21:03:03;;;;;;;23.57;15.40;;;;;;;;;;5031400;28;20186;-69
2022/02/03 21:05:28;;;;;;;22.17;15.00;;;;;;;;;;5013030;28;20178;-70
2022/02/03 21:07:53;;;;;;;24.23;15.13;;;;;;;;;;5029313;28;20275;-69
2022/02/03 21:10:22;;;;;;;23.80;14.53;;;;;;;;;;5011756;28;20274;-69
2022/02/03 21:12:49;;;;;;;26.83;15.90;;;;;;;;;;5028288;28;20584;-69
2022/02/03 21:15:22;;;;;;;22.30;14.97;;;;;;;;;;5027509;28;20173;-69
2022/02/03 21:17:47;;;;;;;21.90;14.93;;;;;;;;;;5011594;28;20198;-69
2022/02/03 21:20:16;;;;;;;24.20;14.93;;;;;;;;;;5029672;28;20632;-69
2022/02/03 21:22:41;;;;;;;23.67;15.23;;;;;;;;;;5026285;28;20186;-69
2022/02/03 21:25:16;;;;;;;22.33;15.47;;;;;;;;;;5028946;28;20700;-68
2022/02/03 21:27:41;;;;;;;22.00;14.83;;;;;;;;;;5009525;28;20202;-69
2022/02/03 21:30:08;;;;;;;24.13;15.70;;;;;;;;;;5028952;28;20292;-69
2022/02/03 21:32:33;;;;;;;22.53;15.00;;;;;;;;;;5026526;28;20225;-69
2022/02/03 21:34:58;;;;;;;21.70;14.60;;;;;;;;;;5027996;28;20263;-69
2022/02/03 21:37:23;;;;;;;20.57;13.90;;;;;;;;;;5028096;28;20572;-69
2022/02/03 21:39:54;;;;;;;22.70;14.90;;;;;;;;;;5026044;28;20182;-69
2022/02/03 21:42:19;;;;;;;21.70;15.37;;;;;;;;;;5028877;28;20231;-69
2022/02/03 21:44:44;;;;;;;22.93;14.23;;;;;;;;;;5030121;28;20595;-68
2022/02/03 21:47:09;;;;;;;21.13;14.03;;;;;;;;;;5025866;28;20202;-69
2022/02/03 21:49:34;;;;;;;21.67;14.37;;;;;;;;;;5028441;28;20763;-68
2022/02/03 21:52:00;;;;;;;21.50;15.33;;;;;;;;;;5029498;28;20273;-70
2022/02/03 21:54:25;;;;;;;20.43;13.73;;;;;;;;;;5026212;28;20718;-69
2022/02/03 21:56:50;;;;;;;22.40;14.90;;;;;;;;;;5010984;28;20194;-69
2022/02/03 21:59:16;;;;;;;20.77;14.57;;;;;;;;;;5017834;28;20552;-69
2022/02/03 22:01:43;;;;;;;19.80;14.00;;;;;;;;;;5034066;28;20206;-69
2022/02/03 22:04:08;;;;;;;25.47;13.93;;;;;;;;;;5030807;28;20191;-68
2022/02/03 22:06:34;;;;;;;20.37;13.13;;;;;;;;;;5032989;28;20231;-68
2022/02/03 22:08:59;;;;;;;22.70;15.37;;;;;;;;;;5032404;28;20253;-69
2022/02/03 22:11:24;;;;;;;20.63;13.73;;;;;;;;;;5027013;28;20228;-69
2022/02/03 22:13:50;;;;;;;21.80;15.50;;;;;;;;;;5031774;28;20187;-69
2022/02/03 22:16:21;;;;;;;21.50;14.80;;;;;;;;;;5009776;28;20198;-69
2022/02/03 22:18:46;;;;;;;22.93;15.60;;;;;;;;;;5033004;28;20178;-69
2022/02/03 22:21:22;;;;;;;23.23;16.10;;;;;;;;;;5032291;28;20232;-69
2022/02/03 22:44:58;;;;;;;22.67;15.10;;;;;;;;;;5032305;28;20182;-69
2022/02/03 22:47:38;;;;;;;23.30;16.33;;;;;;;;;;5031389;28;20268;-69
2022/02/03 22:50:04;;;;;;;27.50;16.37;;;;;;;;;;5031167;28;20584;-68
2022/02/03 22:52:29;;;;;;;24.07;15.80;;;;;;;;;;5031116;28;20211;-68
2022/02/03 22:54:54;;;;;;;25.17;16.23;;;;;;;;;;5031162;28;20205;-69
2022/02/03 22:57:20;;;;;;;26.43;17.50;;;;;;;;;;5030608;28;20681;-69
2022/02/03 23:02:16;;;;;;;24.47;15.53;;;;;;;;;;5031392;28;20184;-68
2022/02/03 23:04:41;;;;;;;25.37;16.47;;;;;;;;;;5032988;28;20247;-69
2022/02/03 23:07:19;;;;;;;26.07;16.57;;;;;;;;;;5011938;28;20201;-68
2022/02/03 23:18:09;;;;;;;29.50;18.00;;;;;;;;;;5022915;28;20243;-69
2022/02/03 23:20:51;;;;;;;24.40;17.27;;;;;;;;;;5034850;28;20643;-71
2022/02/03 23:23:16;;;;;;;26.43;17.03;;;;;;;;;;5027451;28;20205;-69
2022/02/03 23:25:44;;;;;;;26.47;17.33;;;;;;;;;;5043311;28;20187;-69
2022/02/03 23:28:16;;;;;;;26.97;18.03;;;;;;;;;;5016079;28;20256;-70
2022/02/03 23:30:42;;;;;;;23.60;16.60;;;;;;;;;;5016045;28;20198;-71
2022/02/03 23:33:07;;;;;;;25.80;16.40;;;;;;;;;;5031307;28;20236;-70
2022/02/03 23:35:34;;;;;;;22.37;15.70;;;;;;;;;;5031844;28;20583;-69
2022/02/03 23:41:00;;;;;;;22.90;16.23;;;;;;;;;;5033158;28;20261;-71
